createdAt,value
2022-08-25T00:03:14.500Z,100727.03
2022-08-25T00:08:18.467Z,100732.00
2022-08-25T00:13:21.190Z,100738.63
2022-08-25T00:18:28.570Z,100739.58
2022-08-25T00:23:31.930Z,100728.45
2022-08-25T00:28:36.586Z,100720.17
2022-08-25T00:33:39.441Z,100707.30
2022-08-25T00:38:44.044Z,100692.27
2022-08-25T00:43:48.945Z,100680.42
2022-08-25T00:48:58.261Z,100681.00
2022-08-25T00:54:02.798Z,100684.15
2022-08-25T00:59:05.933Z,100676.13
2022-08-25T01:04:09.053Z,100679.15
2022-08-25T01:09:14.150Z,100687.77
2022-08-25T01:14:19.965Z,100675.45
2022-08-25T01:19:22.721Z,100662.70
2022-08-25T01:24:44.235Z,100659.71
2022-08-25T01:29:46.967Z,100654.36
2022-08-25T01:34:49.881Z,100646.75
2022-08-25T01:39:55.102Z,100646.48
2022-08-25T01:44:57.859Z,100650.06
2022-08-25T01:50:00.643Z,100657.41
2022-08-25T01:55:05.279Z,100659.10
2022-08-25T02:00:12.830Z,100648.72
2022-08-25T02:05:18.487Z,100643.16
2022-08-25T02:10:25.640Z,100640.48
2022-08-25T02:15:28.525Z,100636.32
2022-08-25T02:20:31.307Z,100629.58
2022-08-25T02:25:34.409Z,100631.83
2022-08-25T02:30:39.053Z,100627.25
2022-08-25T02:35:42.381Z,100628.64
2022-08-25T02:40:45.107Z,100624.31
2022-08-25T02:45:48.157Z,100619.63
2022-08-25T02:50:52.940Z,100613.55
2022-08-25T02:55:55.985Z,100613.34
2022-08-25T03:00:58.740Z,100612.40
2022-08-25T03:06:02.593Z,100610.42
2022-08-25T03:11:06.513Z,100603.64
2022-08-25T03:16:11.453Z,100600.52
2022-08-25T03:21:16.477Z,100598.20
2022-08-25T03:26:49.331Z,100599.01
2022-08-25T03:31:54.937Z,100592.89
2022-08-25T03:36:58.934Z,100591.09
2022-08-25T03:42:03.166Z,100591.62
2022-08-25T03:47:07.252Z,100597.69
2022-08-25T03:52:10.570Z,100597.36
2022-08-25T03:57:13.604Z,100598.11
2022-08-25T04:02:16.337Z,100599.87
2022-08-25T04:07:20.038Z,100601.09
2022-08-25T04:12:23.926Z,100608.10
2022-08-25T04:17:26.924Z,100607.22
2022-08-25T04:22:31.170Z,100600.13
2022-08-25T04:27:37.614Z,100601.55
2022-08-25T04:32:40.408Z,100598.86
2022-08-25T04:37:43.309Z,100597.60
2022-08-25T04:42:48.057Z,100603.61
2022-08-25T04:47:54.845Z,100604.02
2022-08-25T04:52:58.706Z,100597.02
2022-08-25T04:58:01.568Z,100598.69
2022-08-25T05:03:05.976Z,100610.10
2022-08-25T05:08:08.927Z,100629.10
2022-08-25T05:13:11.829Z,100648.70
2022-08-25T05:18:14.737Z,100656.78
2022-08-25T05:23:17.832Z,100666.81
2022-08-25T05:28:21.171Z,100666.85
2022-08-25T05:33:24.017Z,100664.93
2022-08-25T05:38:27.450Z,100672.23
2022-08-25T05:43:31.105Z,100685.69
2022-08-25T05:48:34.416Z,100689.66
2022-08-25T05:53:39.245Z,100693.05
2022-08-25T05:58:43.575Z,100678.27
2022-08-25T06:03:47.831Z,100682.26
2022-08-25T06:08:50.689Z,100683.44
2022-08-25T06:13:54.271Z,100687.80
2022-08-25T06:18:57.043Z,100682.83
2022-08-25T06:23:59.986Z,100676.88
2022-08-25T06:29:03.957Z,100656.23
2022-08-25T06:34:06.805Z,100647.17
2022-08-25T06:39:10.586Z,100638.02
2022-08-25T06:44:13.490Z,100643.31
2022-08-25T06:49:16.234Z,100645.04
2022-08-25T06:54:18.943Z,100639.40
2022-08-25T06:59:22.381Z,100642.93
2022-08-25T07:04:25.793Z,100654.17
2022-08-25T07:09:28.993Z,100660.86
2022-08-25T07:14:31.751Z,100662.19
2022-08-25T07:19:34.834Z,100660.17
2022-08-25T07:24:37.624Z,100661.15
2022-08-25T07:29:42.214Z,100658.72
2022-08-25T07:35:04.354Z,100650.17
2022-08-25T07:40:08.347Z,100653.92
2022-08-25T07:45:12.652Z,100654.84
2022-08-25T07:50:15.411Z,100656.84
2022-08-25T07:55:18.460Z,100659.38
2022-08-25T08:00:32.173Z,100658.12
2022-08-25T08:05:37.454Z,100669.39
2022-08-25T08:11:04.030Z,100670.54
2022-08-25T08:16:09.948Z,100672.23
2022-08-25T08:21:19.230Z,100678.33
2022-08-25T08:26:36.526Z,100684.27
2022-08-25T08:31:48.648Z,100688.48
2022-08-25T08:36:52.090Z,100689.48
2022-08-25T08:42:19.246Z,100690.79
2022-08-25T08:47:35.847Z,100684.74
2022-08-25T08:52:48.779Z,100685.59
2022-08-25T08:57:55.795Z,100680.64
2022-08-25T09:03:07.700Z,100675.39
2022-08-25T09:08:13.775Z,100671.78
2022-08-25T09:14:00.419Z,100672.41
2022-08-25T09:19:32.149Z,100662.28
2022-08-25T09:24:52.669Z,100655.48
2022-08-25T09:30:10.199Z,100647.19
2022-08-25T09:35:26.344Z,100648.21
2022-08-25T09:40:35.451Z,100646.75
2022-08-25T09:45:46.425Z,100637.81
2022-08-25T09:50:51.438Z,100632.80
2022-08-25T09:56:04.705Z,100631.26
2022-08-25T10:01:25.790Z,100627.25
2022-08-25T10:06:43.532Z,100625.59
2022-08-25T10:11:48.509Z,100620.39
2022-08-25T10:16:53.469Z,100615.75
2022-08-25T10:22:12.827Z,100605.21
2022-08-25T10:27:39.504Z,100600.47
2022-08-25T10:32:52.099Z,100595.92
2022-08-25T10:37:59.070Z,100589.13
2022-08-25T10:43:43.689Z,100579.64
2022-08-25T10:49:10.631Z,100572.05
2022-08-25T10:54:52.027Z,100570.31
2022-08-25T11:00:14.118Z,100566.59
2022-08-25T11:05:31.186Z,100570.13
2022-08-25T11:11:02.662Z,100574.80
2022-08-25T11:16:19.208Z,100576.08
2022-08-25T11:21:48.846Z,100568.35
2022-08-25T11:26:56.281Z,100565.09
2022-08-25T11:32:02.090Z,100557.36
2022-08-25T11:37:34.900Z,100551.92
2022-08-25T11:43:20.270Z,100553.83
2022-08-25T11:48:30.409Z,100543.27
2022-08-25T11:53:37.965Z,100540.17
2022-08-25T11:58:53.931Z,100543.67
2022-08-25T12:04:34.057Z,100538.42
2022-08-25T12:10:10.997Z,100534.40
2022-08-25T12:16:00.564Z,100530.70
2022-08-25T12:21:06.448Z,100526.42
2022-08-25T12:26:30.326Z,100526.15
2022-08-25T12:32:07.189Z,100521.75
2022-08-25T12:37:15.780Z,100513.09
2022-08-25T12:42:38.678Z,100506.43
2022-08-25T12:47:47.613Z,100510.62
2022-08-25T12:52:52.786Z,100511.63
2022-08-25T12:57:59.047Z,100501.95
2022-08-25T13:03:01.916Z,100499.55
2022-08-25T13:08:49.600Z,100496.09
2022-08-25T13:14:15.494Z,100496.23
2022-08-25T13:19:20.291Z,100494.89
2022-08-25T13:24:32.085Z,100492.84
2022-08-25T13:29:58.357Z,100490.83
2022-08-25T13:35:08.909Z,100484.98
2022-08-25T13:40:27.809Z,100479.19
2022-08-25T13:45:41.234Z,100475.25
2022-08-25T13:50:51.629Z,100466.73
2022-08-25T13:55:58.924Z,100461.58
2022-08-25T14:01:23.206Z,100459.31
2022-08-25T14:06:29.670Z,100454.02
2022-08-25T14:11:48.703Z,100443.19
2022-08-25T14:17:05.008Z,100441.09
2022-08-25T14:22:19.750Z,100433.44
2022-08-25T14:27:22.729Z,100431.45
2022-08-25T14:32:25.488Z,100435.11
2022-08-25T14:37:29.296Z,100429.85
2022-08-25T14:42:35.253Z,100432.98
2022-08-25T14:47:38.325Z,100432.42
2022-08-25T14:52:43.548Z,100428.58
2022-08-25T14:57:47.115Z,100424.20
2022-08-25T15:02:51.717Z,100419.27
2022-08-25T15:08:14.892Z,100415.45
2022-08-25T15:13:17.852Z,100412.13
2022-08-25T15:18:22.803Z,100409.45
2022-08-25T15:23:26.445Z,100398.42
2022-08-25T15:28:29.449Z,100392.80
2022-08-25T15:33:33.712Z,100390.10
2022-08-25T15:38:37.568Z,100392.05
2022-08-25T15:43:40.813Z,100389.60
2022-08-25T15:48:43.689Z,100384.36
2022-08-25T15:53:47.128Z,100381.86
2022-08-25T15:58:50.730Z,100376.67
2022-08-25T16:03:54.774Z,100371.19
2022-08-25T16:08:58.977Z,100367.26
2022-08-25T16:14:02.525Z,100363.69
2022-08-25T16:19:06.889Z,100356.09
2022-08-25T16:24:09.744Z,100353.24
2022-08-25T16:29:14.619Z,100354.39
2022-08-25T16:34:17.352Z,100351.71
2022-08-25T16:39:23.963Z,100352.31
2022-08-25T16:44:27.244Z,100355.55
2022-08-25T16:49:31.247Z,100354.47
2022-08-25T16:54:52.392Z,100357.38
2022-08-25T16:59:55.928Z,100353.55
2022-08-25T17:04:59.387Z,100353.74
2022-08-25T17:10:05.349Z,100357.77
2022-08-25T17:15:09.421Z,100362.52
2022-08-25T17:20:12.108Z,100361.33
2022-08-25T17:25:14.966Z,100356.86
2022-08-25T17:30:17.795Z,100366.20
2022-08-25T17:35:20.851Z,100364.68
2022-08-25T17:40:24.938Z,100364.58
2022-08-25T17:45:29.786Z,100367.55
2022-08-25T17:50:36.304Z,100371.02
2022-08-25T17:55:43.142Z,100372.80
2022-08-25T18:00:47.099Z,100373.48
2022-08-25T18:05:50.407Z,100376.34
2022-08-25T18:10:53.215Z,100378.77
2022-08-25T18:15:55.986Z,100378.14
2022-08-25T18:20:58.790Z,100383.13
2022-08-25T18:26:02.645Z,100384.77
2022-08-25T18:31:05.847Z,100382.80
2022-08-25T18:36:11.211Z,100387.11
2022-08-25T18:41:14.025Z,100388.98
2022-08-25T18:46:17.142Z,100386.21
2022-08-25T18:51:26.251Z,100388.64
2022-08-25T18:56:30.250Z,100386.54
2022-08-25T19:01:33.078Z,100383.70
2022-08-25T19:06:37.722Z,100383.42
2022-08-25T19:11:40.592Z,100385.02
2022-08-25T19:16:44.390Z,100385.64
2022-08-25T19:21:48.241Z,100384.48
2022-08-25T19:26:54.567Z,100382.38
2022-08-25T19:32:01.170Z,100386.10
2022-08-25T19:37:06.076Z,100386.98
2022-08-25T19:42:35.098Z,100386.50
2022-08-25T19:47:33.090Z,100381.31
2022-08-25T19:52:37.166Z,100379.41
2022-08-25T19:57:42.630Z,100379.23
2022-08-25T20:02:47.291Z,100377.12
2022-08-25T20:07:54.068Z,100377.95
2022-08-25T20:12:56.860Z,100378.58
2022-08-25T20:18:00.990Z,100374.62
2022-08-25T20:23:24.316Z,100375.02
2022-08-25T20:28:27.059Z,100371.16
2022-08-25T20:33:30.635Z,100370.11
2022-08-25T20:38:33.665Z,100373.72
2022-08-25T20:43:36.363Z,100378.73
2022-08-25T20:48:39.290Z,100377.30
2022-08-25T20:53:43.944Z,100378.39
2022-08-25T20:58:48.683Z,100379.39
2022-08-25T21:03:51.419Z,100383.36
2022-08-25T21:08:54.629Z,100382.69
2022-08-25T21:13:58.884Z,100385.34
2022-08-25T21:19:02.463Z,100379.70
2022-08-25T21:24:09.701Z,100386.95
2022-08-25T21:29:15.245Z,100390.09
2022-08-25T21:34:20.088Z,100382.65
2022-08-25T21:39:26.451Z,100384.25
2022-08-25T21:44:30.257Z,100381.97
2022-08-25T21:49:37.324Z,100380.68
2022-08-25T21:54:40.812Z,100381.45
2022-08-25T21:59:43.955Z,100371.52
2022-08-25T22:04:48.789Z,100373.98
2022-08-25T22:09:52.057Z,100375.04
2022-08-25T22:14:55.612Z,100371.91
2022-08-25T22:19:58.993Z,100369.82
2022-08-25T22:25:01.906Z,100367.55
2022-08-25T22:30:05.706Z,100363.74
2022-08-25T22:35:09.515Z,100358.86
2022-08-25T22:40:13.254Z,100353.09
2022-08-25T22:45:17.537Z,100345.77
2022-08-25T22:50:20.456Z,100343.04
2022-08-25T22:55:23.804Z,100339.91
2022-08-25T23:00:27.416Z,100334.67
2022-08-25T23:05:30.273Z,100332.02
2022-08-25T23:10:34.592Z,100328.10
2022-08-25T23:15:38.108Z,100320.11
2022-08-25T23:20:59.801Z,100316.23
2022-08-25T23:26:05.340Z,100317.55
2022-08-25T23:31:09.549Z,100316.98
2022-08-25T23:36:15.955Z,100315.19
2022-08-25T23:41:23.201Z,100314.23
2022-08-25T23:46:29.129Z,100314.22
2022-08-25T23:51:34.229Z,100311.31
2022-08-25T23:56:44.700Z,100300.71
